sensor_id;sensor_type;location;lat;lon;timestamp;P1;P2;P0
69238;PMS5003;56349;51.816;-0.026;2023-02-01T00:02:11;3;2;
69238;PMS5003;56349;51.816;-0.026;2023-02-01T00:04:36;2;2;
69238;PMS5003;56349;51.816;-0.026;2023-02-01T00:07:02;1;1;
69238;PMS5003;56349;51.816;-0.026;2023-02-01T00:09:28;3;2;
69238;PMS5003;56349;51.816;-0.026;2023-02-01T00:11:53;2;2;
69238;PMS5003;56349;51.816;-0.026;2023-02-01T00:14:19;2;2;
69238;PMS5003;56349;51.816;-0.026;2023-02-01T00:16:45;2;2;
69238;PMS5003;56349;51.816;-0.026;2023-02-01T00:19:11;2;2;
69238;PMS5003;56349;51.816;-0.026;2023-02-01T00:21:36;1;1;
69238;PMS5003;56349;51.816;-0.026;2023-02-01T00:24:02;2;2;
69238;PMS5003;56349;51.816;-0.026;2023-02-01T00:26:30;1;1;
69238;PMS5003;56349;51.816;-0.026;2023-02-01T00:28:54;2;2;
69238;PMS5003;56349;51.816;-0.026;2023-02-01T00:31:20;0;0;
69238;PMS5003;56349;51.816;-0.026;2023-02-01T00:33:46;1;1;
69238;PMS5003;56349;51.816;-0.026;2023-02-01T00:36:11;1;1;
69238;PMS5003;56349;51.816;-0.026;2023-02-01T00:38:37;0;0;
69238;PMS5003;56349;51.816;-0.026;2023-02-01T00:41:03;1;1;
69238;PMS5003;56349;51.816;-0.026;2023-02-01T00:43:27;4;2;
69238;PMS5003;56349;51.816;-0.026;2023-02-01T00:45:53;2;2;
69238;PMS5003;56349;51.816;-0.026;2023-02-01T00:48:19;3;2;
69238;PMS5003;56349;51.816;-0.026;2023-02-01T00:50:45;3;1;
69238;PMS5003;56349;51.816;-0.026;2023-02-01T00:53:11;9;8;
69238;PMS5003;56349;51.816;-0.026;2023-02-01T00:55:37;8;7;
69238;PMS5003;56349;51.816;-0.026;2023-02-01T00:58:03;7;6;
69238;PMS5003;56349;51.816;-0.026;2023-02-01T01:00:29;13;11;
69238;PMS5003;56349;51.816;-0.026;2023-02-01T01:02:54;10;10;
69238;PMS5003;56349;51.816;-0.026;2023-02-01T01:05:20;17;14;
69238;PMS5003;56349;51.816;-0.026;2023-02-01T01:07:46;15;15;
69238;PMS5003;56349;51.816;-0.026;2023-02-01T01:10:12;14;14;
69238;PMS5003;56349;51.816;-0.026;2023-02-01T01:12:38;12;12;
69238;PMS5003;56349;51.816;-0.026;2023-02-01T01:15:05;14;14;
69238;PMS5003;56349;51.816;-0.026;2023-02-01T01:17:30;19;15;
69238;PMS5003;56349;51.816;-0.026;2023-02-01T01:19:55;15;13;
69238;PMS5003;56349;51.816;-0.026;2023-02-01T01:22:21;18;17;
69238;PMS5003;56349;51.816;-0.026;2023-02-01T01:24:47;16;16;
69238;PMS5003;56349;51.816;-0.026;2023-02-01T01:27:13;13;11;
69238;PMS5003;56349;51.816;-0.026;2023-02-01T01:29:38;17;17;
69238;PMS5003;56349;51.816;-0.026;2023-02-01T01:32:04;17;14;
69238;PMS5003;56349;51.816;-0.026;2023-02-01T01:34:30;12;12;
69238;PMS5003;56349;51.816;-0.026;2023-02-01T01:36:56;13;13;
69238;PMS5003;56349;51.816;-0.026;2023-02-01T01:39:21;17;14;
69238;PMS5003;56349;51.816;-0.026;2023-02-01T01:41:47;15;14;
69238;PMS5003;56349;51.816;-0.026;2023-02-01T01:46:38;17;16;
69238;PMS5003;56349;51.816;-0.026;2023-02-01T01:49:05;12;12;
69238;PMS5003;56349;51.816;-0.026;2023-02-01T01:51:29;15;14;
69238;PMS5003;56349;51.816;-0.026;2023-02-01T01:53:56;18;14;
69238;PMS5003;56349;51.816;-0.026;2023-02-01T01:56:21;13;13;
69238;PMS5003;56349;51.816;-0.026;2023-02-01T01:58:46;15;14;
69238;PMS5003;56349;51.816;-0.026;2023-02-01T02:01:12;15;13;
69238;PMS5003;56349;51.816;-0.026;2023-02-01T02:03:39;14;12;
69238;PMS5003;56349;51.816;-0.026;2023-02-01T02:06:04;13;11;
69238;PMS5003;56349;51.816;-0.026;2023-02-01T02:08:29;12;12;
69238;PMS5003;56349;51.816;-0.026;2023-02-01T02:10:54;15;15;
69238;PMS5003;56349;51.816;-0.026;2023-02-01T02:13:19;12;12;
69238;PMS5003;56349;51.816;-0.026;2023-02-01T02:15:45;15;12;
69238;PMS5003;56349;51.816;-0.026;2023-02-01T02:18:12;14;11;
69238;PMS5003;56349;51.816;-0.026;2023-02-01T02:20:39;14;14;
69238;PMS5003;56349;51.816;-0.026;2023-02-01T02:23:05;12;12;
69238;PMS5003;56349;51.816;-0.026;2023-02-01T02:27:53;11;10;
69238;PMS5003;56349;51.816;-0.026;2023-02-01T02:32:48;14;13;
69238;PMS5003;56349;51.816;-0.026;2023-02-01T02:35:09;11;11;
69238;PMS5003;56349;51.816;-0.026;2023-02-01T02:37:36;12;10;
69238;PMS5003;56349;51.816;-0.026;2023-02-01T02:40:02;11;11;
69238;PMS5003;56349;51.816;-0.026;2023-02-01T02:42:29;12;12;
69238;PMS5003;56349;51.816;-0.026;2023-02-01T02:44:53;15;13;
69238;PMS5003;56349;51.816;-0.026;2023-02-01T02:47:17;13;13;
69238;PMS5003;56349;51.816;-0.026;2023-02-01T02:49:42;12;11;
69238;PMS5003;56349;51.816;-0.026;2023-02-01T02:52:08;12;11;
69238;PMS5003;56349;51.816;-0.026;2023-02-01T02:54:33;13;11;
69238;PMS5003;56349;51.816;-0.026;2023-02-01T02:56:58;12;11;
69238;PMS5003;56349;51.816;-0.026;2023-02-01T02:59:24;9;8;
69238;PMS5003;56349;51.816;-0.026;2023-02-01T03:01:49;12;11;
69238;PMS5003;56349;51.816;-0.026;2023-02-01T03:04:14;10;10;
69238;PMS5003;56349;51.816;-0.026;2023-02-01T03:06:40;11;11;
69238;PMS5003;56349;51.816;-0.026;2023-02-01T03:09:10;13;10;
69238;PMS5003;56349;51.816;-0.026;2023-02-01T03:11:32;13;11;
69238;PMS5003;56349;51.816;-0.026;2023-02-01T03:13:58;8;8;
69238;PMS5003;56349;51.816;-0.026;2023-02-01T03:16:24;10;10;
69238;PMS5003;56349;51.816;-0.026;2023-02-01T03:18:49;10;10;
69238;PMS5003;56349;51.816;-0.026;2023-02-01T03:21:16;9;9;
69238;PMS5003;56349;51.816;-0.026;2023-02-01T03:23:39;13;10;
69238;PMS5003;56349;51.816;-0.026;2023-02-01T03:26:05;11;9;
69238;PMS5003;56349;51.816;-0.026;2023-02-01T03:28:31;9;9;
69238;PMS5003;56349;51.816;-0.026;2023-02-01T03:30:56;10;10;
69238;PMS5003;56349;51.816;-0.026;2023-02-01T03:33:23;9;9;
69238;PMS5003;56349;51.816;-0.026;2023-02-01T03:35:50;8;8;
69238;PMS5003;56349;51.816;-0.026;2023-02-01T03:38:15;8;8;
69238;PMS5003;56349;51.816;-0.026;2023-02-01T03:40:39;9;9;
69238;PMS5003;56349;51.816;-0.026;2023-02-01T03:43:04;8;8;
69238;PMS5003;56349;51.816;-0.026;2023-02-01T03:45:31;11;10;
69238;PMS5003;56349;51.816;-0.026;2023-02-01T03:47:56;8;8;
69238;PMS5003;56349;51.816;-0.026;2023-02-01T03:50:22;9;9;
69238;PMS5003;56349;51.816;-0.026;2023-02-01T03:52:48;9;8;
69238;PMS5003;56349;51.816;-0.026;2023-02-01T03:55:14;9;9;
69238;PMS5003;56349;51.816;-0.026;2023-02-01T03:57:41;9;8;
69238;PMS5003;56349;51.816;-0.026;2023-02-01T04:00:06;8;8;
69238;PMS5003;56349;51.816;-0.026;2023-02-01T04:02:32;6;6;
69238;PMS5003;56349;51.816;-0.026;2023-02-01T04:04:57;8;8;
69238;PMS5003;56349;51.816;-0.026;2023-02-01T04:07:23;9;8;
69238;PMS5003;56349;51.816;-0.026;2023-02-01T04:09:49;7;6;
69238;PMS5003;56349;51.816;-0.026;2023-02-01T04:12:15;7;6;
69238;PMS5003;56349;51.816;-0.026;2023-02-01T04:14:40;10;8;
69238;PMS5003;56349;51.816;-0.026;2023-02-01T04:17:06;9;9;
69238;PMS5003;56349;51.816;-0.026;2023-02-01T04:19:32;7;7;
69238;PMS5003;56349;51.816;-0.026;2023-02-01T04:21:58;9;9;
69238;PMS5003;56349;51.816;-0.026;2023-02-01T04:24:24;7;7;
69238;PMS5003;56349;51.816;-0.026;2023-02-01T04:26:50;9;9;
69238;PMS5003;56349;51.816;-0.026;2023-02-01T04:29:16;8;8;
69238;PMS5003;56349;51.816;-0.026;2023-02-01T04:31:42;7;6;
69238;PMS5003;56349;51.816;-0.026;2023-02-01T04:34:07;7;7;
69238;PMS5003;56349;51.816;-0.026;2023-02-01T04:36:33;8;8;
69238;PMS5003;56349;51.816;-0.026;2023-02-01T04:38:58;8;8;
69238;PMS5003;56349;51.816;-0.026;2023-02-01T04:41:24;6;5;
69238;PMS5003;56349;51.816;-0.026;2023-02-01T04:43:50;9;8;
69238;PMS5003;56349;51.816;-0.026;2023-02-01T04:46:15;8;7;
69238;PMS5003;56349;51.816;-0.026;2023-02-01T04:48:41;9;7;
69238;PMS5003;56349;51.816;-0.026;2023-02-01T04:51:06;8;8;
69238;PMS5003;56349;51.816;-0.026;2023-02-01T04:53:32;6;6;
69238;PMS5003;56349;51.816;-0.026;2023-02-01T04:55:58;9;8;
69238;PMS5003;56349;51.816;-0.026;2023-02-01T04:58:23;8;8;
69238;PMS5003;56349;51.816;-0.026;2023-02-01T05:00:49;7;6;
69238;PMS5003;56349;51.816;-0.026;2023-02-01T05:03:15;7;7;
69238;PMS5003;56349;51.816;-0.026;2023-02-01T05:05:41;8;8;
69238;PMS5003;56349;51.816;-0.026;2023-02-01T05:08:07;8;8;
69238;PMS5003;56349;51.816;-0.026;2023-02-01T05:10:32;5;5;
69238;PMS5003;56349;51.816;-0.026;2023-02-01T05:12:58;6;6;
69238;PMS5003;56349;51.816;-0.026;2023-02-01T05:15:23;8;7;
69238;PMS5003;56349;51.816;-0.026;2023-02-01T05:17:49;7;6;
69238;PMS5003;56349;51.816;-0.026;2023-02-01T05:20:16;7;5;
69238;PMS5003;56349;51.816;-0.026;2023-02-01T05:22:41;10;7;
69238;PMS5003;56349;51.816;-0.026;2023-02-01T05:25:07;7;7;
69238;PMS5003;56349;51.816;-0.026;2023-02-01T05:27:32;9;8;
69238;PMS5003;56349;51.816;-0.026;2023-02-01T05:29:58;7;7;
69238;PMS5003;56349;51.816;-0.026;2023-02-01T05:32:24;9;6;
69238;PMS5003;56349;51.816;-0.026;2023-02-01T05:34:50;7;7;
69238;PMS5003;56349;51.816;-0.026;2023-02-01T05:37:15;6;6;
69238;PMS5003;56349;51.816;-0.026;2023-02-01T05:39:41;6;6;
69238;PMS5003;56349;51.816;-0.026;2023-02-01T05:42:07;3;3;
69238;PMS5003;56349;51.816;-0.026;2023-02-01T05:44:33;3;3;
69238;PMS5003;56349;51.816;-0.026;2023-02-01T05:46:59;7;6;
69238;PMS5003;56349;51.816;-0.026;2023-02-01T05:49:25;3;3;
69238;PMS5003;56349;51.816;-0.026;2023-02-01T05:51:51;3;3;
69238;PMS5003;56349;51.816;-0.026;2023-02-01T05:54:16;3;3;
69238;PMS5003;56349;51.816;-0.026;2023-02-01T05:56:42;5;5;
69238;PMS5003;56349;51.816;-0.026;2023-02-01T05:59:08;5;4;
69238;PMS5003;56349;51.816;-0.026;2023-02-01T06:01:33;4;4;
69238;PMS5003;56349;51.816;-0.026;2023-02-01T06:03:59;5;4;
69238;PMS5003;56349;51.816;-0.026;2023-02-01T06:06:25;4;3;
69238;PMS5003;56349;51.816;-0.026;2023-02-01T06:08:51;3;3;
69238;PMS5003;56349;51.816;-0.026;2023-02-01T06:11:16;6;6;
69238;PMS5003;56349;51.816;-0.026;2023-02-01T06:13:42;4;3;
69238;PMS5003;56349;51.816;-0.026;2023-02-01T06:16:08;6;5;
69238;PMS5003;56349;51.816;-0.026;2023-02-01T06:18:35;2;2;
69238;PMS5003;56349;51.816;-0.026;2023-02-01T06:21:00;6;6;
69238;PMS5003;56349;51.816;-0.026;2023-02-01T06:23:26;6;5;
69238;PMS5003;56349;51.816;-0.026;2023-02-01T06:25:52;8;6;
69238;PMS5003;56349;51.816;-0.026;2023-02-01T06:28:18;4;2;
69238;PMS5003;56349;51.816;-0.026;2023-02-01T06:30:44;7;5;
69238;PMS5003;56349;51.816;-0.026;2023-02-01T06:33:09;11;11;
69238;PMS5003;56349;51.816;-0.026;2023-02-01T06:35:35;5;5;
69238;PMS5003;56349;51.816;-0.026;2023-02-01T06:38:01;4;4;
69238;PMS5003;56349;51.816;-0.026;2023-02-01T06:40:27;4;3;
69238;PMS5003;56349;51.816;-0.026;2023-02-01T06:42:52;4;4;
69238;PMS5003;56349;51.816;-0.026;2023-02-01T06:45:19;5;3;
69238;PMS5003;56349;51.816;-0.026;2023-02-01T06:47:44;3;3;
69238;PMS5003;56349;51.816;-0.026;2023-02-01T06:50:10;4;4;
69238;PMS5003;56349;51.816;-0.026;2023-02-01T06:52:35;2;2;
69238;PMS5003;56349;51.816;-0.026;2023-02-01T06:55:01;3;3;
69238;PMS5003;56349;51.816;-0.026;2023-02-01T06:57:27;5;5;
69238;PMS5003;56349;51.816;-0.026;2023-02-01T06:59:53;5;4;
69238;PMS5003;56349;51.816;-0.026;2023-02-01T07:02:19;7;7;
69238;PMS5003;56349;51.816;-0.026;2023-02-01T07:04:45;4;4;
69238;PMS5003;56349;51.816;-0.026;2023-02-01T07:07:10;6;4;
69238;PMS5003;56349;51.816;-0.026;2023-02-01T07:09:36;6;6;
69238;PMS5003;56349;51.816;-0.026;2023-02-01T07:12:02;6;6;
69238;PMS5003;56349;51.816;-0.026;2023-02-01T07:14:27;5;4;
69238;PMS5003;56349;51.816;-0.026;2023-02-01T07:16:53;3;3;
69238;PMS5003;56349;51.816;-0.026;2023-02-01T07:19:19;3;3;
69238;PMS5003;56349;51.816;-0.026;2023-02-01T07:21:45;6;4;
69238;PMS5003;56349;51.816;-0.026;2023-02-01T07:24:11;4;4;
69238;PMS5003;56349;51.816;-0.026;2023-02-01T07:26:37;5;4;
69238;PMS5003;56349;51.816;-0.026;2023-02-01T07:29:03;4;4;
69238;PMS5003;56349;51.816;-0.026;2023-02-01T07:31:29;5;4;
69238;PMS5003;56349;51.816;-0.026;2023-02-01T07:33:55;3;3;
69238;PMS5003;56349;51.816;-0.026;2023-02-01T07:36:21;2;2;
69238;PMS5003;56349;51.816;-0.026;2023-02-01T07:38:47;3;3;
69238;PMS5003;56349;51.816;-0.026;2023-02-01T07:41:13;3;3;
69238;PMS5003;56349;51.816;-0.026;2023-02-01T07:43:39;7;7;
69238;PMS5003;56349;51.816;-0.026;2023-02-01T07:46:05;4;3;
69238;PMS5003;56349;51.816;-0.026;2023-02-01T07:48:31;5;5;
69238;PMS5003;56349;51.816;-0.026;2023-02-01T07:50:57;4;3;
69238;PMS5003;56349;51.816;-0.026;2023-02-01T07:53:22;4;4;
69238;PMS5003;56349;51.816;-0.026;2023-02-01T07:55:48;2;2;
69238;PMS5003;56349;51.816;-0.026;2023-02-01T07:58:14;3;3;
69238;PMS5003;56349;51.816;-0.026;2023-02-01T08:00:40;3;3;
69238;PMS5003;56349;51.816;-0.026;2023-02-01T08:03:05;2;1;
69238;PMS5003;56349;51.816;-0.026;2023-02-01T08:05:31;0;0;
69238;PMS5003;56349;51.816;-0.026;2023-02-01T08:07:57;2;2;
69238;PMS5003;56349;51.816;-0.026;2023-02-01T08:10:23;3;2;
69238;PMS5003;56349;51.816;-0.026;2023-02-01T08:12:48;2;1;
69238;PMS5003;56349;51.816;-0.026;2023-02-01T08:15:14;2;2;
69238;PMS5003;56349;51.816;-0.026;2023-02-01T08:17:39;1;1;
69238;PMS5003;56349;51.816;-0.026;2023-02-01T08:20:06;3;2;
69238;PMS5003;56349;51.816;-0.026;2023-02-01T08:22:32;0;0;
69238;PMS5003;56349;51.816;-0.026;2023-02-01T08:24:58;1;1;
69238;PMS5003;56349;51.816;-0.026;2023-02-01T08:27:23;1;1;
69238;PMS5003;56349;51.816;-0.026;2023-02-01T08:29:49;1;1;
69238;PMS5003;56349;51.816;-0.026;2023-02-01T08:32:15;1;1;
69238;PMS5003;56349;51.816;-0.026;2023-02-01T08:34:41;3;2;
69238;PMS5003;56349;51.816;-0.026;2023-02-01T08:37:06;1;1;
69238;PMS5003;56349;51.816;-0.026;2023-02-01T08:39:32;1;1;
69238;PMS5003;56349;51.816;-0.026;2023-02-01T08:41:58;1;1;
69238;PMS5003;56349;51.816;-0.026;2023-02-01T08:44:24;2;2;
69238;PMS5003;56349;51.816;-0.026;2023-02-01T08:46:50;2;2;
69238;PMS5003;56349;51.816;-0.026;2023-02-01T08:49:15;1;1;
69238;PMS5003;56349;51.816;-0.026;2023-02-01T08:51:41;2;2;
69238;PMS5003;56349;51.816;-0.026;2023-02-01T08:54:07;2;1;
69238;PMS5003;56349;51.816;-0.026;2023-02-01T08:56:33;1;1;
69238;PMS5003;56349;51.816;-0.026;2023-02-01T08:58:59;1;0;
69238;PMS5003;56349;51.816;-0.026;2023-02-01T09:01:24;0;0;
69238;PMS5003;56349;51.816;-0.026;2023-02-01T09:03:49;1;1;
69238;PMS5003;56349;51.816;-0.026;2023-02-01T09:06:15;2;1;
69238;PMS5003;56349;51.816;-0.026;2023-02-01T09:08:41;1;1;
69238;PMS5003;56349;51.816;-0.026;2023-02-01T09:11:07;2;1;
69238;PMS5003;56349;51.816;-0.026;2023-02-01T09:13:31;1;1;
69238;PMS5003;56349;51.816;-0.026;2023-02-01T09:15:57;2;2;
69238;PMS5003;56349;51.816;-0.026;2023-02-01T09:18:23;1;1;
69238;PMS5003;56349;51.816;-0.026;2023-02-01T09:20:49;2;2;
69238;PMS5003;56349;51.816;-0.026;2023-02-01T09:23:15;2;2;
69238;PMS5003;56349;51.816;-0.026;2023-02-01T09:25:41;2;1;
69238;PMS5003;56349;51.816;-0.026;2023-02-01T09:28:06;1;1;
69238;PMS5003;56349;51.816;-0.026;2023-02-01T09:30:32;1;1;
69238;PMS5003;56349;51.816;-0.026;2023-02-01T09:32:58;2;2;
69238;PMS5003;56349;51.816;-0.026;2023-02-01T09:35:24;1;1;
69238;PMS5003;56349;51.816;-0.026;2023-02-01T09:37:50;2;2;
69238;PMS5003;56349;51.816;-0.026;2023-02-01T09:40:15;3;2;
69238;PMS5003;56349;51.816;-0.026;2023-02-01T09:42:44;1;1;
69238;PMS5003;56349;51.816;-0.026;2023-02-01T09:45:10;7;6;
69238;PMS5003;56349;51.816;-0.026;2023-02-01T09:47:32;3;2;
69238;PMS5003;56349;51.816;-0.026;2023-02-01T09:49:59;3;1;
69238;PMS5003;56349;51.816;-0.026;2023-02-01T09:52:24;3;1;
69238;PMS5003;56349;51.816;-0.026;2023-02-01T09:54:49;3;3;
69238;PMS5003;56349;51.816;-0.026;2023-02-01T09:57:16;2;2;
69238;PMS5003;56349;51.816;-0.026;2023-02-01T09:59:41;5;5;
69238;PMS5003;56349;51.816;-0.026;2023-02-01T10:02:10;5;3;
69238;PMS5003;56349;51.816;-0.026;2023-02-01T10:04:30;3;2;
69238;PMS5003;56349;51.816;-0.026;2023-02-01T10:07:00;3;2;
69238;PMS5003;56349;51.816;-0.026;2023-02-01T10:09:27;3;3;
69238;PMS5003;56349;51.816;-0.026;2023-02-01T10:11:52;5;3;
69238;PMS5003;56349;51.816;-0.026;2023-02-01T10:14:13;4;2;
69238;PMS5003;56349;51.816;-0.026;2023-02-01T10:16:40;1;1;
69238;PMS5003;56349;51.816;-0.026;2023-02-01T10:19:10;5;4;
69238;PMS5003;56349;51.816;-0.026;2023-02-01T10:21:32;4;3;
69238;PMS5003;56349;51.816;-0.026;2023-02-01T10:23:59;1;1;
69238;PMS5003;56349;51.816;-0.026;2023-02-01T10:26:20;1;1;
69238;PMS5003;56349;51.816;-0.026;2023-02-01T10:28:46;5;3;
69238;PMS5003;56349;51.816;-0.026;2023-02-01T10:31:10;3;2;
69238;PMS5003;56349;51.816;-0.026;2023-02-01T10:33:37;5;4;
69238;PMS5003;56349;51.816;-0.026;2023-02-01T10:36:04;5;3;
69238;PMS5003;56349;51.816;-0.026;2023-02-01T10:38:28;2;2;
69238;PMS5003;56349;51.816;-0.026;2023-02-01T10:40:53;3;3;
69238;PMS5003;56349;51.816;-0.026;2023-02-01T10:43:18;4;2;
69238;PMS5003;56349;51.816;-0.026;2023-02-01T10:45:44;1;1;
69238;PMS5003;56349;51.816;-0.026;2023-02-01T10:48:10;4;3;
69238;PMS5003;56349;51.816;-0.026;2023-02-01T10:50:37;3;2;
69238;PMS5003;56349;51.816;-0.026;2023-02-01T10:53:03;1;1;
69238;PMS5003;56349;51.816;-0.026;2023-02-01T10:55:28;3;2;
69238;PMS5003;56349;51.816;-0.026;2023-02-01T10:57:54;2;2;
69238;PMS5003;56349;51.816;-0.026;2023-02-01T11:00:19;2;2;
69238;PMS5003;56349;51.816;-0.026;2023-02-01T11:02:43;1;1;
69238;PMS5003;56349;51.816;-0.026;2023-02-01T11:05:09;1;1;
69238;PMS5003;56349;51.816;-0.026;2023-02-01T11:07:34;3;2;
69238;PMS5003;56349;51.816;-0.026;2023-02-01T11:10:00;1;1;
69238;PMS5003;56349;51.816;-0.026;2023-02-01T11:12:28;4;3;
69238;PMS5003;56349;51.816;-0.026;2023-02-01T11:14:55;2;2;
69238;PMS5003;56349;51.816;-0.026;2023-02-01T11:17:23;2;1;
69238;PMS5003;56349;51.816;-0.026;2023-02-01T11:19:43;2;2;
69238;PMS5003;56349;51.816;-0.026;2023-02-01T11:22:08;3;2;
69238;PMS5003;56349;51.816;-0.026;2023-02-01T11:24:35;2;2;
69238;PMS5003;56349;51.816;-0.026;2023-02-01T11:27:00;1;1;
69238;PMS5003;56349;51.816;-0.026;2023-02-01T11:29:25;4;3;
69238;PMS5003;56349;51.816;-0.026;2023-02-01T11:31:50;3;3;
69238;PMS5003;56349;51.816;-0.026;2023-02-01T11:34:17;3;2;
69238;PMS5003;56349;51.816;-0.026;2023-02-01T11:36:42;4;2;
69238;PMS5003;56349;51.816;-0.026;2023-02-01T11:39:10;2;2;
69238;PMS5003;56349;51.816;-0.026;2023-02-01T11:41:33;4;2;
69238;PMS5003;56349;51.816;-0.026;2023-02-01T11:44:00;5;3;
69238;PMS5003;56349;51.816;-0.026;2023-02-01T11:46:27;3;3;
69238;PMS5003;56349;51.816;-0.026;2023-02-01T11:48:51;3;1;
69238;PMS5003;56349;51.816;-0.026;2023-02-01T11:51:19;2;2;
69238;PMS5003;56349;51.816;-0.026;2023-02-01T11:53:48;5;3;
69238;PMS5003;56349;51.816;-0.026;2023-02-01T11:56:10;4;3;
69238;PMS5003;56349;51.816;-0.026;2023-02-01T12:01:05;4;3;
69238;PMS5003;56349;51.816;-0.026;2023-02-01T12:03:29;1;1;
69238;PMS5003;56349;51.816;-0.026;2023-02-01T12:05:50;2;2;
69238;PMS5003;56349;51.816;-0.026;2023-02-01T12:08:22;2;2;
69238;PMS5003;56349;51.816;-0.026;2023-02-01T12:10:44;5;4;
69238;PMS5003;56349;51.816;-0.026;2023-02-01T12:13:10;4;2;
69238;PMS5003;56349;51.816;-0.026;2023-02-01T12:15:37;2;2;
69238;PMS5003;56349;51.816;-0.026;2023-02-01T12:18:02;4;3;
69238;PMS5003;56349;51.816;-0.026;2023-02-01T12:20:30;2;2;
69238;PMS5003;56349;51.816;-0.026;2023-02-01T12:22:52;4;2;
69238;PMS5003;56349;51.816;-0.026;2023-02-01T12:27:44;4;3;
69238;PMS5003;56349;51.816;-0.026;2023-02-01T12:30:12;4;1;
69238;PMS5003;56349;51.816;-0.026;2023-02-01T12:32:36;1;1;
69238;PMS5003;56349;51.816;-0.026;2023-02-01T12:35:03;2;2;
69238;PMS5003;56349;51.816;-0.026;2023-02-01T12:37:27;2;2;
69238;PMS5003;56349;51.816;-0.026;2023-02-01T12:39:51;4;2;
69238;PMS5003;56349;51.816;-0.026;2023-02-01T12:42:15;3;3;
69238;PMS5003;56349;51.816;-0.026;2023-02-01T12:44:42;5;4;
69238;PMS5003;56349;51.816;-0.026;2023-02-01T12:47:06;1;1;
69238;PMS5003;56349;51.816;-0.026;2023-02-01T12:49:34;1;1;
69238;PMS5003;56349;51.816;-0.026;2023-02-01T12:51:58;3;2;
69238;PMS5003;56349;51.816;-0.026;2023-02-01T12:54:24;1;1;
69238;PMS5003;56349;51.816;-0.026;2023-02-01T12:56:49;2;1;
69238;PMS5003;56349;51.816;-0.026;2023-02-01T12:59:17;2;1;
69238;PMS5003;56349;51.816;-0.026;2023-02-01T13:01:41;2;1;
69238;PMS5003;56349;51.816;-0.026;2023-02-01T13:04:08;1;1;
69238;PMS5003;56349;51.816;-0.026;2023-02-01T13:06:32;3;3;
69238;PMS5003;56349;51.816;-0.026;2023-02-01T13:08:59;2;2;
69238;PMS5003;56349;51.816;-0.026;2023-02-01T13:11:24;1;0;
69238;PMS5003;56349;51.816;-0.026;2023-02-01T13:13:52;3;3;
69238;PMS5003;56349;51.816;-0.026;2023-02-01T13:16:15;1;1;
69238;PMS5003;56349;51.816;-0.026;2023-02-01T13:18:41;3;1;
69238;PMS5003;56349;51.816;-0.026;2023-02-01T13:21:06;2;1;
69238;PMS5003;56349;51.816;-0.026;2023-02-01T13:23:31;1;1;
69238;PMS5003;56349;51.816;-0.026;2023-02-01T13:25:56;1;1;
69238;PMS5003;56349;51.816;-0.026;2023-02-01T13:28:26;3;3;
69238;PMS5003;56349;51.816;-0.026;2023-02-01T13:35:44;3;1;
69238;PMS5003;56349;51.816;-0.026;2023-02-01T13:40:33;2;2;
69238;PMS5003;56349;51.816;-0.026;2023-02-01T13:42:55;3;2;
69238;PMS5003;56349;51.816;-0.026;2023-02-01T13:45:21;3;2;
69238;PMS5003;56349;51.816;-0.026;2023-02-01T13:47:46;3;1;
69238;PMS5003;56349;51.816;-0.026;2023-02-01T13:50:12;6;2;
69238;PMS5003;56349;51.816;-0.026;2023-02-01T13:52:37;2;2;
69238;PMS5003;56349;51.816;-0.026;2023-02-01T13:55:13;3;2;
69238;PMS5003;56349;51.816;-0.026;2023-02-01T13:57:33;3;3;
69238;PMS5003;56349;51.816;-0.026;2023-02-01T13:59:53;4;3;
69238;PMS5003;56349;51.816;-0.026;2023-02-01T14:04:46;4;3;
69238;PMS5003;56349;51.816;-0.026;2023-02-01T14:09:35;5;4;
69238;PMS5003;56349;51.816;-0.026;2023-02-01T14:19:19;3;3;
69238;PMS5003;56349;51.816;-0.026;2023-02-01T14:21:47;0;0;
69238;PMS5003;56349;51.816;-0.026;2023-02-01T14:24:14;1;1;
69238;PMS5003;56349;51.816;-0.026;2023-02-01T14:29:01;3;3;
69238;PMS5003;56349;51.816;-0.026;2023-02-01T14:33:54;2;2;
69238;PMS5003;56349;51.816;-0.026;2023-02-01T14:36:16;2;1;
69238;PMS5003;56349;51.816;-0.026;2023-02-01T14:38:47;2;1;
69238;PMS5003;56349;51.816;-0.026;2023-02-01T14:41:13;3;2;
69238;PMS5003;56349;51.816;-0.026;2023-02-01T14:45:59;11;8;
69238;PMS5003;56349;51.816;-0.026;2023-02-01T14:50:50;10;10;
69238;PMS5003;56349;51.816;-0.026;2023-02-01T14:53:17;11;9;
69238;PMS5003;56349;51.816;-0.026;2023-02-01T14:55:42;11;10;
69238;PMS5003;56349;51.816;-0.026;2023-02-01T14:58:11;10;10;
69238;PMS5003;56349;51.816;-0.026;2023-02-01T15:00:32;10;10;
69238;PMS5003;56349;51.816;-0.026;2023-02-01T15:05:26;8;8;
69238;PMS5003;56349;51.816;-0.026;2023-02-01T15:07:49;10;10;
69238;PMS5003;56349;51.816;-0.026;2023-02-01T15:10:15;12;11;
69238;PMS5003;56349;51.816;-0.026;2023-02-01T15:12:40;9;8;
69238;PMS5003;56349;51.816;-0.026;2023-02-01T15:15:11;10;9;
69238;PMS5003;56349;51.816;-0.026;2023-02-01T15:17:32;8;8;
69238;PMS5003;56349;51.816;-0.026;2023-02-01T15:19:59;10;10;
69238;PMS5003;56349;51.816;-0.026;2023-02-01T15:22:24;7;7;
69238;PMS5003;56349;51.816;-0.026;2023-02-01T15:24:52;14;11;
69238;PMS5003;56349;51.816;-0.026;2023-02-01T15:27:15;10;10;
69238;PMS5003;56349;51.816;-0.026;2023-02-01T15:29:41;7;7;
69238;PMS5003;56349;51.816;-0.026;2023-02-01T15:32:06;8;7;
69238;PMS5003;56349;51.816;-0.026;2023-02-01T15:37:04;7;6;
69238;PMS5003;56349;51.816;-0.026;2023-02-01T15:39:23;9;9;
69238;PMS5003;56349;51.816;-0.026;2023-02-01T15:41:49;9;9;
69238;PMS5003;56349;51.816;-0.026;2023-02-01T15:44:16;9;8;
69238;PMS5003;56349;51.816;-0.026;2023-02-01T15:46:40;10;7;
69238;PMS5003;56349;51.816;-0.026;2023-02-01T15:49:05;10;8;
69238;PMS5003;56349;51.816;-0.026;2023-02-01T15:51:31;9;8;
69238;PMS5003;56349;51.816;-0.026;2023-02-01T15:53:56;8;7;
69238;PMS5003;56349;51.816;-0.026;2023-02-01T15:56:23;8;8;
69238;PMS5003;56349;51.816;-0.026;2023-02-01T15:58:48;6;5;
69238;PMS5003;56349;51.816;-0.026;2023-02-01T16:01:13;7;7;
69238;PMS5003;56349;51.816;-0.026;2023-02-01T16:03:40;7;7;
69238;PMS5003;56349;51.816;-0.026;2023-02-01T16:06:05;8;8;
69238;PMS5003;56349;51.816;-0.026;2023-02-01T16:08:30;8;8;
69238;PMS5003;56349;51.816;-0.026;2023-02-01T16:10:59;8;8;
69238;PMS5003;56349;51.816;-0.026;2023-02-01T16:13:20;5;5;
69238;PMS5003;56349;51.816;-0.026;2023-02-01T16:15:47;8;8;
69238;PMS5003;56349;51.816;-0.026;2023-02-01T16:18:12;9;9;
69238;PMS5003;56349;51.816;-0.026;2023-02-01T16:20:38;9;6;
69238;PMS5003;56349;51.816;-0.026;2023-02-01T16:23:03;9;7;
69238;PMS5003;56349;51.816;-0.026;2023-02-01T16:25:29;6;6;
69238;PMS5003;56349;51.816;-0.026;2023-02-01T16:27:55;5;4;
69238;PMS5003;56349;51.816;-0.026;2023-02-01T16:30:21;7;7;
69238;PMS5003;56349;51.816;-0.026;2023-02-01T16:32:47;6;6;
69238;PMS5003;56349;51.816;-0.026;2023-02-01T16:35:13;7;7;
69238;PMS5003;56349;51.816;-0.026;2023-02-01T16:37:38;5;4;
69238;PMS5003;56349;51.816;-0.026;2023-02-01T16:40:04;8;6;
69238;PMS5003;56349;51.816;-0.026;2023-02-01T16:42:29;5;5;
69238;PMS5003;56349;51.816;-0.026;2023-02-01T16:44:55;9;7;
69238;PMS5003;56349;51.816;-0.026;2023-02-01T16:47:21;6;5;
69238;PMS5003;56349;51.816;-0.026;2023-02-01T16:49:46;5;5;
69238;PMS5003;56349;51.816;-0.026;2023-02-01T16:52:13;6;5;
69238;PMS5003;56349;51.816;-0.026;2023-02-01T16:54:37;6;5;
69238;PMS5003;56349;51.816;-0.026;2023-02-01T16:57:04;7;7;
69238;PMS5003;56349;51.816;-0.026;2023-02-01T16:59:28;6;5;
69238;PMS5003;56349;51.816;-0.026;2023-02-01T17:01:54;5;5;
69238;PMS5003;56349;51.816;-0.026;2023-02-01T17:04:20;6;6;